sensor_id;sensor_type;location;lat;lon;timestamp;P1;durP1;ratioP1;P2;durP2;ratioP2
33022;SDS011;19390;51.460;5.710;2023-02-24T00:01:37;30.55;;;5.38;;
33022;SDS011;19390;51.460;5.710;2023-02-24T00:04:08;32.05;;;5.35;;
33022;SDS011;19390;51.460;5.710;2023-02-24T00:06:39;25.50;;;4.75;;
33022;SDS011;19390;51.460;5.710;2023-02-24T00:09:09;30.77;;;6.32;;
33022;SDS011;19390;51.460;5.710;2023-02-24T00:11:37;36.08;;;6.70;;
33022;SDS011;19390;51.460;5.710;2023-02-24T00:14:08;36.75;;;6.97;;
33022;SDS011;19390;51.460;5.710;2023-02-24T00:16:37;28.98;;;6.78;;
33022;SDS011;19390;51.460;5.710;2023-02-24T00:19:03;28.42;;;6.55;;
33022;SDS011;19390;51.460;5.710;2023-02-24T00:21:31;38.25;;;8.20;;
33022;SDS011;19390;51.460;5.710;2023-02-24T00:23:58;36.10;;;6.43;;
33022;SDS011;19390;51.460;5.710;2023-02-24T00:26:25;30.75;;;5.88;;
33022;SDS011;19390;51.460;5.710;2023-02-24T00:28:51;35.65;;;5.95;;
33022;SDS011;19390;51.460;5.710;2023-02-24T00:31:17;32.63;;;5.80;;
33022;SDS011;19390;51.460;5.710;2023-02-24T00:33:44;29.23;;;6.13;;
33022;SDS011;19390;51.460;5.710;2023-02-24T00:36:18;27.88;;;5.75;;
33022;SDS011;19390;51.460;5.710;2023-02-24T00:38:48;29.63;;;5.97;;
33022;SDS011;19390;51.460;5.710;2023-02-24T00:41:16;34.00;;;6.32;;
33022;SDS011;19390;51.460;5.710;2023-02-24T00:43:46;29.73;;;5.85;;
33022;SDS011;19390;51.460;5.710;2023-02-24T00:46:20;32.35;;;6.63;;
33022;SDS011;19390;51.460;5.710;2023-02-24T00:48:50;33.05;;;7.80;;
33022;SDS011;19390;51.460;5.710;2023-02-24T00:51:21;37.50;;;6.18;;
33022;SDS011;19390;51.460;5.710;2023-02-24T00:53:50;29.48;;;6.15;;
33022;SDS011;19390;51.460;5.710;2023-02-24T00:56:20;23.38;;;5.30;;
33022;SDS011;19390;51.460;5.710;2023-02-24T00:58:51;33.88;;;5.85;;
33022;SDS011;19390;51.460;5.710;2023-02-24T01:01:18;33.88;;;6.55;;
33022;SDS011;19390;51.460;5.710;2023-02-24T01:03:46;29.67;;;6.63;;
33022;SDS011;19390;51.460;5.710;2023-02-24T01:06:13;32.33;;;5.88;;
33022;SDS011;19390;51.460;5.710;2023-02-24T01:08:44;29.35;;;5.55;;
33022;SDS011;19390;51.460;5.710;2023-02-24T01:11:32;32.42;;;5.90;;
33022;SDS011;19390;51.460;5.710;2023-02-24T01:14:19;28.02;;;6.28;;
33022;SDS011;19390;51.460;5.710;2023-02-24T01:16:46;30.88;;;5.40;;
33022;SDS011;19390;51.460;5.710;2023-02-24T01:19:15;31.83;;;6.78;;
33022;SDS011;19390;51.460;5.710;2023-02-24T01:21:44;29.88;;;6.47;;
33022;SDS011;19390;51.460;5.710;2023-02-24T01:24:11;41.70;;;6.55;;
33022;SDS011;19390;51.460;5.710;2023-02-24T01:26:40;36.88;;;6.75;;
33022;SDS011;19390;51.460;5.710;2023-02-24T01:29:07;34.13;;;6.18;;
33022;SDS011;19390;51.460;5.710;2023-02-24T01:31:34;39.45;;;6.10;;
33022;SDS011;19390;51.460;5.710;2023-02-24T01:34:11;34.10;;;6.82;;
33022;SDS011;19390;51.460;5.710;2023-02-24T01:36:38;29.33;;;6.88;;
33022;SDS011;19390;51.460;5.710;2023-02-24T01:39:07;29.85;;;6.07;;
33022;SDS011;19390;51.460;5.710;2023-02-24T01:41:38;32.83;;;5.90;;
33022;SDS011;19390;51.460;5.710;2023-02-24T01:44:56;31.67;;;6.25;;
33022;SDS011;19390;51.460;5.710;2023-02-24T01:46:56;28.13;;;6.40;;
33022;SDS011;19390;51.460;5.710;2023-02-24T01:49:32;23.80;;;5.63;;
33022;SDS011;19390;51.460;5.710;2023-02-24T01:52:04;31.52;;;5.55;;
33022;SDS011;19390;51.460;5.710;2023-02-24T01:54:34;33.92;;;6.53;;
33022;SDS011;19390;51.460;5.710;2023-02-24T01:57:05;21.42;;;4.97;;
33022;SDS011;19390;51.460;5.710;2023-02-24T01:59:32;23.60;;;5.20;;
33022;SDS011;19390;51.460;5.710;2023-02-24T02:02:03;32.28;;;6.15;;
33022;SDS011;19390;51.460;5.710;2023-02-24T02:04:51;20.65;;;4.25;;
33022;SDS011;19390;51.460;5.710;2023-02-24T02:07:21;22.48;;;4.50;;
33022;SDS011;19390;51.460;5.710;2023-02-24T02:09:48;23.77;;;4.85;;
33022;SDS011;19390;51.460;5.710;2023-02-24T02:12:18;18.15;;;4.63;;
33022;SDS011;19390;51.460;5.710;2023-02-24T02:14:45;25.02;;;4.85;;
33022;SDS011;19390;51.460;5.710;2023-02-24T02:17:35;19.48;;;5.03;;
33022;SDS011;19390;51.460;5.710;2023-02-24T02:20:32;28.98;;;5.10;;
33022;SDS011;19390;51.460;5.710;2023-02-24T02:34:35;20.75;;;4.00;;
33022;SDS011;19390;51.460;5.710;2023-02-24T02:42:49;14.60;;;3.80;;
33022;SDS011;19390;51.460;5.710;2023-02-24T02:48:14;19.63;;;4.28;;
33022;SDS011;19390;51.460;5.710;2023-02-24T02:50:47;23.05;;;4.55;;
33022;SDS011;19390;51.460;5.710;2023-02-24T02:53:30;22.10;;;4.10;;
33022;SDS011;19390;51.460;5.710;2023-02-24T02:56:33;21.73;;;4.13;;
33022;SDS011;19390;51.460;5.710;2023-02-24T02:59:05;22.70;;;4.47;;
33022;SDS011;19390;51.460;5.710;2023-02-24T03:01:36;18.15;;;3.92;;
33022;SDS011;19390;51.460;5.710;2023-02-24T03:04:06;20.83;;;4.00;;
33022;SDS011;19390;51.460;5.710;2023-02-24T03:06:36;19.33;;;3.78;;
33022;SDS011;19390;51.460;5.710;2023-02-24T03:09:20;16.23;;;3.78;;
33022;SDS011;19390;51.460;5.710;2023-02-24T03:11:54;16.90;;;3.78;;
33022;SDS011;19390;51.460;5.710;2023-02-24T03:14:34;23.60;;;4.07;;
33022;SDS011;19390;51.460;5.710;2023-02-24T03:17:04;12.73;;;3.15;;
33022;SDS011;19390;51.460;5.710;2023-02-24T03:19:34;16.42;;;3.92;;
33022;SDS011;19390;51.460;5.710;2023-02-24T03:22:13;22.27;;;4.82;;
33022;SDS011;19390;51.460;5.710;2023-02-24T03:24:43;16.80;;;4.50;;
33022;SDS011;19390;51.460;5.710;2023-02-24T03:27:11;19.17;;;3.97;;
33022;SDS011;19390;51.460;5.710;2023-02-24T03:32:31;22.40;;;4.25;;
33022;SDS011;19390;51.460;5.710;2023-02-24T03:35:27;20.90;;;3.33;;
33022;SDS011;19390;51.460;5.710;2023-02-24T03:37:55;30.92;;;3.80;;
33022;SDS011;19390;51.460;5.710;2023-02-24T03:40:23;26.95;;;3.88;;
33022;SDS011;19390;51.460;5.710;2023-02-24T03:43:17;20.13;;;4.07;;
33022;SDS011;19390;51.460;5.710;2023-02-24T03:45:54;19.35;;;3.92;;
33022;SDS011;19390;51.460;5.710;2023-02-24T03:48:21;19.35;;;3.65;;
33022;SDS011;19390;51.460;5.710;2023-02-24T03:50:49;14.18;;;3.47;;
33022;SDS011;19390;51.460;5.710;2023-02-24T03:53:29;16.42;;;3.83;;
33022;SDS011;19390;51.460;5.710;2023-02-24T03:58:56;14.40;;;3.20;;
33022;SDS011;19390;51.460;5.710;2023-02-24T04:07:11;18.42;;;3.53;;
33022;SDS011;19390;51.460;5.710;2023-02-24T04:09:39;20.17;;;3.65;;
33022;SDS011;19390;51.460;5.710;2023-02-24T04:12:33;16.27;;;3.35;;
33022;SDS011;19390;51.460;5.710;2023-02-24T04:18:16;19.90;;;3.72;;
33022;SDS011;19390;51.460;5.710;2023-02-24T04:20:45;15.77;;;3.13;;
33022;SDS011;19390;51.460;5.710;2023-02-24T04:23:17;13.48;;;3.08;;
33022;SDS011;19390;51.460;5.710;2023-02-24T04:25:47;13.82;;;2.90;;
33022;SDS011;19390;51.460;5.710;2023-02-24T04:28:15;19.63;;;4.57;;
33022;SDS011;19390;51.460;5.710;2023-02-24T04:30:46;18.60;;;3.35;;
33022;SDS011;19390;51.460;5.710;2023-02-24T04:33:15;17.65;;;3.10;;
33022;SDS011;19390;51.460;5.710;2023-02-24T04:35:43;20.40;;;3.17;;
33022;SDS011;19390;51.460;5.710;2023-02-24T04:38:09;15.40;;;3.28;;
33022;SDS011;19390;51.460;5.710;2023-02-24T04:40:35;12.93;;;2.85;;
33022;SDS011;19390;51.460;5.710;2023-02-24T04:43:01;13.98;;;3.08;;
33022;SDS011;19390;51.460;5.710;2023-02-24T04:45:28;18.13;;;3.45;;
33022;SDS011;19390;51.460;5.710;2023-02-24T04:47:57;15.43;;;3.25;;
33022;SDS011;19390;51.460;5.710;2023-02-24T04:50:25;16.52;;;2.88;;
33022;SDS011;19390;51.460;5.710;2023-02-24T04:53:00;12.80;;;3.05;;
33022;SDS011;19390;51.460;5.710;2023-02-24T04:55:27;14.65;;;3.40;;
33022;SDS011;19390;51.460;5.710;2023-02-24T04:58:00;15.48;;;2.85;;
33022;SDS011;19390;51.460;5.710;2023-02-24T05:00:26;13.57;;;2.75;;
33022;SDS011;19390;51.460;5.710;2023-02-24T05:02:57;12.68;;;2.83;;
33022;SDS011;19390;51.460;5.710;2023-02-24T05:05:25;17.42;;;2.97;;
33022;SDS011;19390;51.460;5.710;2023-02-24T05:07:56;14.38;;;3.28;;
33022;SDS011;19390;51.460;5.710;2023-02-24T05:10:37;17.55;;;2.92;;
33022;SDS011;19390;51.460;5.710;2023-02-24T05:13:06;19.80;;;2.60;;
33022;SDS011;19390;51.460;5.710;2023-02-24T05:15:33;15.98;;;3.00;;
33022;SDS011;19390;51.460;5.710;2023-02-24T05:18:04;19.48;;;3.85;;
33022;SDS011;19390;51.460;5.710;2023-02-24T05:20:41;15.10;;;2.70;;
33022;SDS011;19390;51.460;5.710;2023-02-24T05:23:31;12.05;;;2.25;;
33022;SDS011;19390;51.460;5.710;2023-02-24T05:26:08;13.32;;;2.80;;
33022;SDS011;19390;51.460;5.710;2023-02-24T05:28:36;21.65;;;4.00;;
33022;SDS011;19390;51.460;5.710;2023-02-24T05:31:12;19.55;;;3.97;;
33022;SDS011;19390;51.460;5.710;2023-02-24T05:33:39;16.70;;;3.00;;
33022;SDS011;19390;51.460;5.710;2023-02-24T05:36:07;14.75;;;3.22;;
33022;SDS011;19390;51.460;5.710;2023-02-24T05:38:42;14.70;;;2.88;;
33022;SDS011;19390;51.460;5.710;2023-02-24T05:41:10;14.43;;;3.42;;
33022;SDS011;19390;51.460;5.710;2023-02-24T05:43:41;14.15;;;3.40;;
33022;SDS011;19390;51.460;5.710;2023-02-24T05:46:15;15.02;;;2.95;;
33022;SDS011;19390;51.460;5.710;2023-02-24T05:48:41;13.18;;;3.08;;
33022;SDS011;19390;51.460;5.710;2023-02-24T05:51:08;17.77;;;3.03;;
33022;SDS011;19390;51.460;5.710;2023-02-24T05:53:36;11.93;;;2.83;;
33022;SDS011;19390;51.460;5.710;2023-02-24T05:56:09;13.07;;;2.75;;
33022;SDS011;19390;51.460;5.710;2023-02-24T05:58:36;19.17;;;3.35;;
33022;SDS011;19390;51.460;5.710;2023-02-24T06:01:08;16.85;;;3.03;;
33022;SDS011;19390;51.460;5.710;2023-02-24T06:03:43;15.93;;;2.92;;
33022;SDS011;19390;51.460;5.710;2023-02-24T06:06:14;17.98;;;3.28;;
33022;SDS011;19390;51.460;5.710;2023-02-24T06:08:40;19.17;;;3.17;;
33022;SDS011;19390;51.460;5.710;2023-02-24T06:11:13;17.20;;;3.90;;
33022;SDS011;19390;51.460;5.710;2023-02-24T06:13:41;18.50;;;3.67;;
33022;SDS011;19390;51.460;5.710;2023-02-24T06:16:17;27.10;;;3.08;;
33022;SDS011;19390;51.460;5.710;2023-02-24T06:18:45;22.25;;;3.30;;
33022;SDS011;19390;51.460;5.710;2023-02-24T06:21:14;20.13;;;3.78;;
33022;SDS011;19390;51.460;5.710;2023-02-24T06:23:39;14.00;;;3.42;;
33022;SDS011;19390;51.460;5.710;2023-02-24T06:26:06;18.67;;;3.17;;
33022;SDS011;19390;51.460;5.710;2023-02-24T06:28:37;14.30;;;3.85;;
33022;SDS011;19390;51.460;5.710;2023-02-24T06:31:04;11.15;;;3.13;;
33022;SDS011;19390;51.460;5.710;2023-02-24T06:33:32;19.30;;;3.58;;
33022;SDS011;19390;51.460;5.710;2023-02-24T06:36:00;22.80;;;3.10;;
33022;SDS011;19390;51.460;5.710;2023-02-24T06:38:28;19.52;;;3.50;;
33022;SDS011;19390;51.460;5.710;2023-02-24T06:40:58;17.25;;;3.95;;
33022;SDS011;19390;51.460;5.710;2023-02-24T06:43:27;18.88;;;3.72;;
33022;SDS011;19390;51.460;5.710;2023-02-24T06:45:52;17.58;;;4.00;;
33022;SDS011;19390;51.460;5.710;2023-02-24T06:48:19;12.60;;;3.88;;
33022;SDS011;19390;51.460;5.710;2023-02-24T06:50:47;17.70;;;3.58;;
33022;SDS011;19390;51.460;5.710;2023-02-24T06:53:16;16.52;;;4.10;;
33022;SDS011;19390;51.460;5.710;2023-02-24T06:55:43;18.58;;;3.40;;
33022;SDS011;19390;51.460;5.710;2023-02-24T06:58:16;17.48;;;3.85;;
33022;SDS011;19390;51.460;5.710;2023-02-24T07:00:43;14.75;;;4.05;;
33022;SDS011;19390;51.460;5.710;2023-02-24T07:03:20;13.38;;;4.22;;
33022;SDS011;19390;51.460;5.710;2023-02-24T07:05:49;17.83;;;3.38;;
33022;SDS011;19390;51.460;5.710;2023-02-24T07:08:34;19.10;;;3.67;;
33022;SDS011;19390;51.460;5.710;2023-02-24T07:11:01;17.88;;;4.03;;
33022;SDS011;19390;51.460;5.710;2023-02-24T07:13:30;11.95;;;3.72;;
33022;SDS011;19390;51.460;5.710;2023-02-24T07:16:00;21.42;;;3.90;;
33022;SDS011;19390;51.460;5.710;2023-02-24T07:18:34;17.10;;;4.00;;
33022;SDS011;19390;51.460;5.710;2023-02-24T07:21:07;11.27;;;2.85;;
33022;SDS011;19390;51.460;5.710;2023-02-24T07:23:37;29.10;;;4.70;;
33022;SDS011;19390;51.460;5.710;2023-02-24T07:26:08;15.20;;;4.38;;
33022;SDS011;19390;51.460;5.710;2023-02-24T07:28:39;21.63;;;4.00;;
33022;SDS011;19390;51.460;5.710;2023-02-24T07:31:07;11.95;;;3.08;;
33022;SDS011;19390;51.460;5.710;2023-02-24T07:33:35;17.52;;;4.25;;
33022;SDS011;19390;51.460;5.710;2023-02-24T07:36:03;17.30;;;3.70;;
33022;SDS011;19390;51.460;5.710;2023-02-24T07:38:38;15.83;;;4.30;;
33022;SDS011;19390;51.460;5.710;2023-02-24T07:41:04;12.15;;;3.05;;
33022;SDS011;19390;51.460;5.710;2023-02-24T07:43:34;16.38;;;4.35;;
33022;SDS011;19390;51.460;5.710;2023-02-24T07:46:11;18.85;;;4.00;;
33022;SDS011;19390;51.460;5.710;2023-02-24T07:48:39;15.77;;;4.05;;
33022;SDS011;19390;51.460;5.710;2023-02-24T07:51:06;16.65;;;3.20;;
33022;SDS011;19390;51.460;5.710;2023-02-24T07:53:33;14.75;;;3.25;;
33022;SDS011;19390;51.460;5.710;2023-02-24T07:56:04;12.35;;;3.33;;
33022;SDS011;19390;51.460;5.710;2023-02-24T07:58:37;13.98;;;3.25;;
33022;SDS011;19390;51.460;5.710;2023-02-24T08:01:15;20.25;;;3.22;;
33022;SDS011;19390;51.460;5.710;2023-02-24T08:03:50;15.15;;;3.13;;
33022;SDS011;19390;51.460;5.710;2023-02-24T08:06:20;18.15;;;3.90;;
33022;SDS011;19390;51.460;5.710;2023-02-24T08:08:57;24.45;;;2.90;;
33022;SDS011;19390;51.460;5.710;2023-02-24T08:11:27;20.25;;;3.20;;
33022;SDS011;19390;51.460;5.710;2023-02-24T08:14:00;19.48;;;4.10;;
33022;SDS011;19390;51.460;5.710;2023-02-24T08:16:30;17.58;;;3.85;;
33022;SDS011;19390;51.460;5.710;2023-02-24T08:19:07;13.65;;;2.67;;
33022;SDS011;19390;51.460;5.710;2023-02-24T08:21:37;15.20;;;2.97;;
33022;SDS011;19390;51.460;5.710;2023-02-24T08:27:03;20.92;;;3.28;;
33022;SDS011;19390;51.460;5.710;2023-02-24T08:29:30;19.27;;;3.28;;
33022;SDS011;19390;51.460;5.710;2023-02-24T08:32:04;17.58;;;2.75;;
33022;SDS011;19390;51.460;5.710;2023-02-24T08:34:35;19.80;;;2.55;;
33022;SDS011;19390;51.460;5.710;2023-02-24T08:37:02;15.77;;;3.70;;
33022;SDS011;19390;51.460;5.710;2023-02-24T08:39:28;19.80;;;2.60;;
33022;SDS011;19390;51.460;5.710;2023-02-24T08:41:58;19.80;;;2.95;;
33022;SDS011;19390;51.460;5.710;2023-02-24T08:44:23;17.80;;;3.08;;
33022;SDS011;19390;51.460;5.710;2023-02-24T08:46:54;17.95;;;2.58;;
33022;SDS011;19390;51.460;5.710;2023-02-24T08:49:21;15.63;;;3.38;;
33022;SDS011;19390;51.460;5.710;2023-02-24T08:51:49;11.15;;;2.63;;
33022;SDS011;19390;51.460;5.710;2023-02-24T08:54:25;16.35;;;3.05;;
33022;SDS011;19390;51.460;5.710;2023-02-24T08:56:56;13.75;;;2.33;;
33022;SDS011;19390;51.460;5.710;2023-02-24T08:59:32;14.23;;;2.67;;
33022;SDS011;19390;51.460;5.710;2023-02-24T09:02:06;16.30;;;2.90;;
33022;SDS011;19390;51.460;5.710;2023-02-24T09:04:46;16.50;;;2.45;;
33022;SDS011;19390;51.460;5.710;2023-02-24T09:07:18;13.43;;;2.42;;
33022;SDS011;19390;51.460;5.710;2023-02-24T09:09:52;14.60;;;2.60;;
33022;SDS011;19390;51.460;5.710;2023-02-24T09:12:21;9.85;;;2.17;;
33022;SDS011;19390;51.460;5.710;2023-02-24T09:14:53;12.25;;;3.28;;
33022;SDS011;19390;51.460;5.710;2023-02-24T09:17:22;18.60;;;2.75;;
33022;SDS011;19390;51.460;5.710;2023-02-24T09:20:09;15.77;;;2.47;;
33022;SDS011;19390;51.460;5.710;2023-02-24T09:22:51;9.35;;;2.80;;
33022;SDS011;19390;51.460;5.710;2023-02-24T09:25:22;10.85;;;2.78;;
33022;SDS011;19390;51.460;5.710;2023-02-24T09:28:09;13.38;;;2.90;;
33022;SDS011;19390;51.460;5.710;2023-02-24T09:30:43;12.38;;;2.53;;
33022;SDS011;19390;51.460;5.710;2023-02-24T09:36:09;12.13;;;2.55;;
33022;SDS011;19390;51.460;5.710;2023-02-24T09:38:48;14.88;;;2.63;;
33022;SDS011;19390;51.460;5.710;2023-02-24T09:44:17;14.82;;;4.00;;
33022;SDS011;19390;51.460;5.710;2023-02-24T09:47:09;12.52;;;2.45;;
33022;SDS011;19390;51.460;5.710;2023-02-24T09:52:48;12.63;;;2.90;;
33022;SDS011;19390;51.460;5.710;2023-02-24T10:03:44;15.50;;;2.95;;
33022;SDS011;19390;51.460;5.710;2023-02-24T10:06:32;13.38;;;2.72;;
33022;SDS011;19390;51.460;5.710;2023-02-24T10:11:41;17.67;;;3.63;;
33022;SDS011;19390;51.460;5.710;2023-02-24T10:14:26;11.27;;;3.20;;
33022;SDS011;19390;51.460;5.710;2023-02-24T10:17:07;18.63;;;3.05;;
33022;SDS011;19390;51.460;5.710;2023-02-24T10:19:50;12.68;;;3.58;;
33022;SDS011;19390;51.460;5.710;2023-02-24T10:22:33;12.52;;;3.38;;
33022;SDS011;19390;51.460;5.710;2023-02-24T10:25:22;10.88;;;2.65;;
33022;SDS011;19390;51.460;5.710;2023-02-24T10:33:34;17.55;;;3.08;;
33022;SDS011;19390;51.460;5.710;2023-02-24T10:36:10;14.10;;;2.83;;
33022;SDS011;19390;51.460;5.710;2023-02-24T10:38:41;11.68;;;3.08;;
33022;SDS011;19390;51.460;5.710;2023-02-24T10:41:11;14.82;;;3.65;;
33022;SDS011;19390;51.460;5.710;2023-02-24T10:43:38;13.75;;;3.15;;
33022;SDS011;19390;51.460;5.710;2023-02-24T10:46:29;13.05;;;3.50;;
33022;SDS011;19390;51.460;5.710;2023-02-24T10:49:00;19.23;;;4.00;;
33022;SDS011;19390;51.460;5.710;2023-02-24T10:51:31;20.02;;;3.35;;
33022;SDS011;19390;51.460;5.710;2023-02-24T10:56:46;14.80;;;3.50;;
33022;SDS011;19390;51.460;5.710;2023-02-24T10:59:23;14.35;;;3.80;;
33022;SDS011;19390;51.460;5.710;2023-02-24T11:01:53;13.88;;;3.63;;
33022;SDS011;19390;51.460;5.710;2023-02-24T11:04:31;11.05;;;3.47;;
33022;SDS011;19390;51.460;5.710;2023-02-24T11:07:38;14.88;;;3.88;;
33022;SDS011;19390;51.460;5.710;2023-02-24T11:13:11;14.68;;;3.92;;
33022;SDS011;19390;51.460;5.710;2023-02-24T11:15:59;13.73;;;3.67;;
33022;SDS011;19390;51.460;5.710;2023-02-24T11:18:47;17.90;;;3.80;;
33022;SDS011;19390;51.460;5.710;2023-02-24T11:21:16;13.67;;;3.33;;
33022;SDS011;19390;51.460;5.710;2023-02-24T11:23:50;12.43;;;4.07;;
33022;SDS011;19390;51.460;5.710;2023-02-24T11:26:24;12.32;;;3.97;;
33022;SDS011;19390;51.460;5.710;2023-02-24T11:37:00;10.35;;;3.35;;
33022;SDS011;19390;51.460;5.710;2023-02-24T11:39:54;17.17;;;4.20;;
33022;SDS011;19390;51.460;5.710;2023-02-24T11:42:28;16.70;;;4.32;;
33022;SDS011;19390;51.460;5.710;2023-02-24T11:48:11;19.25;;;4.60;;
33022;SDS011;19390;51.460;5.710;2023-02-24T11:50:46;15.65;;;4.00;;
33022;SDS011;19390;51.460;5.710;2023-02-24T11:56:14;19.90;;;5.38;;
33022;SDS011;19390;51.460;5.710;2023-02-24T11:59:15;23.17;;;5.25;;
33022;SDS011;19390;51.460;5.710;2023-02-24T12:02:11;19.65;;;5.63;;
33022;SDS011;19390;51.460;5.710;2023-02-24T12:04:43;26.67;;;10.38;;
33022;SDS011;19390;51.460;5.710;2023-02-24T12:09:56;20.65;;;7.28;;
33022;SDS011;19390;51.460;5.710;2023-02-24T12:14:59;20.80;;;7.13;;
33022;SDS011;19390;51.460;5.710;2023-02-24T12:17:30;22.38;;;6.68;;
33022;SDS011;19390;51.460;5.710;2023-02-24T12:20:39;18.02;;;7.55;;
33022;SDS011;19390;51.460;5.710;2023-02-24T12:34:55;19.58;;;7.82;;
33022;SDS011;19390;51.460;5.710;2023-02-24T12:40:54;26.85;;;7.40;;
33022;SDS011;19390;51.460;5.710;2023-02-24T12:43:35;18.67;;;7.35;;
33022;SDS011;19390;51.460;5.710;2023-02-24T12:46:28;17.13;;;7.47;;
33022;SDS011;19390;51.460;5.710;2023-02-24T12:54:50;17.30;;;8.98;;
33022;SDS011;19390;51.460;5.710;2023-02-24T12:57:24;18.35;;;7.78;;
33022;SDS011;19390;51.460;5.710;2023-02-24T13:00:00;17.08;;;7.78;;
33022;SDS011;19390;51.460;5.710;2023-02-24T13:02:43;20.35;;;8.98;;
33022;SDS011;19390;51.460;5.710;2023-02-24T13:05:43;21.42;;;9.18;;
33022;SDS011;19390;51.460;5.710;2023-02-24T13:08:33;22.77;;;9.05;;
33022;SDS011;19390;51.460;5.710;2023-02-24T13:11:17;22.48;;;9.55;;
33022;SDS011;19390;51.460;5.710;2023-02-24T13:16:40;22.02;;;9.05;;
33022;SDS011;19390;51.460;5.710;2023-02-24T13:19:28;18.80;;;8.13;;
33022;SDS011;19390;51.460;5.710;2023-02-24T13:21:55;18.15;;;8.65;;
33022;SDS011;19390;51.460;5.710;2023-02-24T13:24:27;25.52;;;8.38;;
33022;SDS011;19390;51.460;5.710;2023-02-24T13:27:03;21.98;;;8.85;;
33022;SDS011;19390;51.460;5.710;2023-02-24T13:29:42;21.42;;;10.10;;
33022;SDS011;19390;51.460;5.710;2023-02-24T13:35:02;20.35;;;9.85;;
33022;SDS011;19390;51.460;5.710;2023-02-24T13:37:38;18.92;;;9.90;;
33022;SDS011;19390;51.460;5.710;2023-02-24T13:43:04;23.67;;;9.90;;
33022;SDS011;19390;51.460;5.710;2023-02-24T13:54:08;17.38;;;9.85;;
33022;SDS011;19390;51.460;5.710;2023-02-24T13:56:56;18.85;;;10.52;;
33022;SDS011;19390;51.460;5.710;2023-02-24T14:02:29;21.50;;;10.50;;
33022;SDS011;19390;51.460;5.710;2023-02-24T14:04:56;19.05;;;10.05;;
33022;SDS011;19390;51.460;5.710;2023-02-24T14:07:25;19.10;;;10.18;;
33022;SDS011;19390;51.460;5.710;2023-02-24T14:09:55;20.90;;;10.32;;
33022;SDS011;19390;51.460;5.710;2023-02-24T14:12:29;22.40;;;10.07;;
33022;SDS011;19390;51.460;5.710;2023-02-24T14:15:00;19.65;;;11.43;;
33022;SDS011;19390;51.460;5.710;2023-02-24T14:17:35;15.48;;;10.30;;
33022;SDS011;19390;51.460;5.710;2023-02-24T14:22:33;18.27;;;10.48;;
33022;SDS011;19390;51.460;5.710;2023-02-24T14:25:08;18.30;;;8.68;;
33022;SDS011;19390;51.460;5.710;2023-02-24T14:27:35;19.20;;;10.20;;
33022;SDS011;19390;51.460;5.710;2023-02-24T14:30:02;17.33;;;9.63;;
33022;SDS011;19390;51.460;5.710;2023-02-24T14:32:29;15.93;;;9.90;;
33022;SDS011;19390;51.460;5.710;2023-02-24T14:34:57;12.18;;;9.45;;
33022;SDS011;19390;51.460;5.710;2023-02-24T14:37:25;19.42;;;10.52;;
33022;SDS011;19390;51.460;5.710;2023-02-24T14:39:57;19.38;;;10.98;;
33022;SDS011;19390;51.460;5.710;2023-02-24T14:42:25;17.42;;;10.20;;
33022;SDS011;19390;51.460;5.710;2023-02-24T14:44:56;27.23;;;11.25;;
33022;SDS011;19390;51.460;5.710;2023-02-24T14:47:24;15.80;;;8.82;;
33022;SDS011;19390;51.460;5.710;2023-02-24T14:52:25;25.23;;;10.48;;
33022;SDS011;19390;51.460;5.710;2023-02-24T14:54:58;15.27;;;9.05;;
33022;SDS011;19390;51.460;5.710;2023-02-24T15:00:36;19.70;;;8.23;;
33022;SDS011;19390;51.460;5.710;2023-02-24T15:06:03;19.45;;;10.15;;
33022;SDS011;19390;51.460;5.710;2023-02-24T15:14:15;16.27;;;8.20;;
33022;SDS011;19390;51.460;5.710;2023-02-24T15:16:44;17.88;;;9.35;;
33022;SDS011;19390;51.460;5.710;2023-02-24T15:19:23;19.83;;;8.98;;
33022;SDS011;19390;51.460;5.710;2023-02-24T15:21:56;14.48;;;7.85;;
33022;SDS011;19390;51.460;5.710;2023-02-24T15:24:30;19.92;;;8.57;;
33022;SDS011;19390;51.460;5.710;2023-02-24T15:27:02;21.55;;;8.25;;
33022;SDS011;19390;51.460;5.710;2023-02-24T15:29:58;16.70;;;8.48;;
33022;SDS011;19390;51.460;5.710;2023-02-24T15:32:27;18.65;;;7.00;;
33022;SDS011;19390;51.460;5.710;2023-02-24T15:34:55;19.70;;;9.05;;
33022;SDS011;19390;51.460;5.710;2023-02-24T15:37:25;17.52;;;8.18;;
33022;SDS011;19390;51.460;5.710;2023-02-24T15:40:00;23.55;;;7.93;;
33022;SDS011;19390;51.460;5.710;2023-02-24T15:42:30;15.82;;;5.80;;
33022;SDS011;19390;51.460;5.710;2023-02-24T15:44:59;21.85;;;6.18;;
33022;SDS011;19390;51.460;5.710;2023-02-24T15:47:28;18.38;;;4.50;;
33022;SDS011;19390;51.460;5.710;2023-02-24T15:49:57;14.50;;;3.28;;
33022;SDS011;19390;51.460;5.710;2023-02-24T15:52:24;17.60;;;3.65;;
33022;SDS011;19390;51.460;5.710;2023-02-24T15:54:53;15.00;;;3.13;;
33022;SDS011;19390;51.460;5.710;2023-02-24T15:57:20;22.77;;;3.63;;
33022;SDS011;19390;51.460;5.710;2023-02-24T15:59:47;12.77;;;2.95;;
33022;SDS011;19390;51.460;5.710;2023-02-24T16:02:17;22.17;;;4.10;;
33022;SDS011;19390;51.460;5.710;2023-02-24T16:04:45;13.60;;;2.80;;
33022;SDS011;19390;51.460;5.710;2023-02-24T16:07:14;13.65;;;2.25;;
33022;SDS011;19390;51.460;5.710;2023-02-24T16:09:53;17.77;;;3.58;;
33022;SDS011;19390;51.460;5.710;2023-02-24T16:12:22;16.73;;;3.08;;
33022;SDS011;19390;51.460;5.710;2023-02-24T16:14:56;18.90;;;2.88;;
33022;SDS011;19390;51.460;5.710;2023-02-24T16:20:06;18.98;;;3.08;;
33022;SDS011;19390;51.460;5.710;2023-02-24T16:22:36;13.43;;;3.25;;
33022;SDS011;19390;51.460;5.710;2023-02-24T16:25:03;20.38;;;3.33;;
33022;SDS011;19390;51.460;5.710;2023-02-24T16:27:29;11.93;;;3.03;;
33022;SDS011;19390;51.460;5.710;2023-02-24T16:29:56;15.13;;;2.63;;
33022;SDS011;19390;51.460;5.710;2023-02-24T16:32:22;19.77;;;2.63;;
33022;SDS011;19390;51.460;5.710;2023-02-24T16:34:49;24.35;;;3.20;;
33022;SDS011;19390;51.460;5.710;2023-02-24T16:37:20;20.70;;;3.75;;
33022;SDS011;19390;51.460;5.710;2023-02-24T16:39:48;27.03;;;3.77;;
33022;SDS011;19390;51.460;5.710;2023-02-24T16:42:15;16.77;;;2.50;;
33022;SDS011;19390;51.460;5.710;2023-02-24T16:44:41;18.65;;;4.00;;
33022;SDS011;19390;51.460;5.710;2023-02-24T16:47:10;15.23;;;2.22;;
33022;SDS011;19390;51.460;5.710;2023-02-24T16:49:39;18.25;;;3.17;;
33022;SDS011;19390;51.460;5.710;2023-02-24T16:52:05;15.10;;;2.38;;
33022;SDS011;19390;51.460;5.710;2023-02-24T16:54:31;26.45;;;3.25;;
33022;SDS011;19390;51.460;5.710;2023-02-24T16:56:57;19.23;;;3.70;;
33022;SDS011;19390;51.460;5.710;2023-02-24T16:59:23;21.13;;;2.95;;
33022;SDS011;19390;51.460;5.710;2023-02-24T17:01:52;25.90;;;3.38;;
33022;SDS011;19390;51.460;5.710;2023-02-24T17:06:50;28.83;;;3.10;;
33022;SDS011;19390;51.460;5.710;2023-02-24T17:09:15;18.90;;;2.80;;
33022;SDS011;19390;51.460;5.710;2023-02-24T17:11:42;21.67;;;2.70;;
33022;SDS011;19390;51.460;5.710;2023-02-24T17:14:15;15.98;;;2.42;;
33022;SDS011;19390;51.460;5.710;2023-02-24T17:16:42;20.88;;;3.67;;
33022;SDS011;19390;51.460;5.710;2023-02-24T17:19:08;23.05;;;3.42;;
33022;SDS011;19390;51.460;5.710;2023-02-24T17:21:34;16.27;;;2.92;;
33022;SDS011;19390;51.460;5.710;2023-02-24T17:24:05;13.50;;;2.63;;
33022;SDS011;19390;51.460;5.710;2023-02-24T17:26:31;17.17;;;2.65;;
33022;SDS011;19390;51.460;5.710;2023-02-24T17:28:57;15.85;;;3.17;;
33022;SDS011;19390;51.460;5.710;2023-02-24T17:31:23;14.48;;;1.98;;
33022;SDS011;19390;51.460;5.710;2023-02-24T17:33:52;15.55;;;2.95;;
33022;SDS011;19390;51.460;5.710;2023-02-24T17:36:17;15.50;;;2.40;;